Aviation Digital Data Service (ADDS)

Output produced by TAFs form (0153 UTC 01 July 2015)
found at http://www.aviationweather.gov/adds/tafs/
 
KMDT 302344Z 0100/0124 15006KT P6SM VCTS BKN035CB 
     TEMPO 0100/0102 25012G25KT 1SM +TSRA BR OVC025CB 
     FM010200 17006KT P6SM -SHRA BKN035 
     TEMPO 0102/0105 2SM TSRA BR OVC025CB 
     FM010500 26006KT 4SM BR BKN020 
     FM011300 29008G15KT P6SM SCT035